Terminal Aerodrome Forecast
Issued by NWS

Home | Current Version | Previous Version | Text Only | Print | Product List | Glossary On
Versions: 1 2 3 4 5 6 7 8 9 10 11 12 13 14 15
000
FTUS43 KICT 260500
TAFSLN
TAF
KSLN 260520Z 2606/2706 19012KT P6SM BKN200
     FM261500 23011KT P6SM BKN150
     FM270000 35008KT P6SM VCTS SCT080CB BKN120=

USA.gov is the U.S. government's official web portal to all federal, state and local government web resources and services.